sensor_id;sensor_type;location;lat;lon;timestamp;temperature;humidity
21883;DHT22;11106;47.864;13.054;2023-07-20T00:00:04;18.40;99.90
21883;DHT22;11106;47.864;13.054;2023-07-20T13:03:07;24.60;99.90
21883;DHT22;11106;47.864;13.054;2023-07-20T13:08:08;25.40;93.30
21883;DHT22;11106;47.864;13.054;2023-07-20T13:13:09;25.20;95.60
21883;DHT22;11106;47.864;13.054;2023-07-20T13:18:09;25.20;94.20
21883;DHT22;11106;47.864;13.054;2023-07-20T13:23:10;25.10;93.30
21883;DHT22;11106;47.864;13.054;2023-07-20T13:28:11;24.90;94.20
21883;DHT22;11106;47.864;13.054;2023-07-20T13:33:11;25.20;95.20
21883;DHT22;11106;47.864;13.054;2023-07-20T13:38:12;25.20;96.10
21883;DHT22;11106;47.864;13.054;2023-07-20T13:43:12;25.40;94.20
21883;DHT22;11106;47.864;13.054;2023-07-20T13:48:13;25.40;94.60
21883;DHT22;11106;47.864;13.054;2023-07-20T13:53:14;25.40;94.70
21883;DHT22;11106;47.864;13.054;2023-07-20T13:58:16;25.50;95.00
21883;DHT22;11106;47.864;13.054;2023-07-20T14:03:17;25.50;94.90
21883;DHT22;11106;47.864;13.054;2023-07-20T14:08:17;25.50;93.50
21883;DHT22;11106;47.864;13.054;2023-07-20T14:13:18;25.50;93.90
21883;DHT22;11106;47.864;13.054;2023-07-20T14:18:18;25.60;93.50
21883;DHT22;11106;47.864;13.054;2023-07-20T14:23:19;25.60;92.50
21883;DHT22;11106;47.864;13.054;2023-07-20T14:28:20;25.60;93.00
21883;DHT22;11106;47.864;13.054;2023-07-20T14:33:20;25.10;92.30
21883;DHT22;11106;47.864;13.054;2023-07-20T14:38:22;24.90;93.10
21883;DHT22;11106;47.864;13.054;2023-07-20T14:43:23;24.60;93.90
21883;DHT22;11106;47.864;13.054;2023-07-20T14:48:23;24.60;93.70
21883;DHT22;11106;47.864;13.054;2023-07-20T14:53:24;24.50;93.90
21883;DHT22;11106;47.864;13.054;2023-07-20T14:58:29;24.50;94.90
21883;DHT22;11106;47.864;13.054;2023-07-20T15:03:29;24.70;95.10
21883;DHT22;11106;47.864;13.054;2023-07-20T15:08:31;24.90;94.60
21883;DHT22;11106;47.864;13.054;2023-07-20T15:13:32;25.20;94.80
21883;DHT22;11106;47.864;13.054;2023-07-20T15:18:32;25.00;92.60
21883;DHT22;11106;47.864;13.054;2023-07-20T15:23:33;24.90;94.80
21883;DHT22;11106;47.864;13.054;2023-07-20T15:28:33;25.00;94.50
21883;DHT22;11106;47.864;13.054;2023-07-20T15:33:34;25.00;93.80
21883;DHT22;11106;47.864;13.054;2023-07-20T15:38:35;24.80;96.20
21883;DHT22;11106;47.864;13.054;2023-07-20T15:43:35;24.70;94.00
21883;DHT22;11106;47.864;13.054;2023-07-20T15:48:36;24.50;94.20
21883;DHT22;11106;47.864;13.054;2023-07-20T15:53:36;24.40;94.00
21883;DHT22;11106;47.864;13.054;2023-07-20T15:58:37;24.30;95.00
21883;DHT22;11106;47.864;13.054;2023-07-20T16:03:38;24.20;94.70
21883;DHT22;11106;47.864;13.054;2023-07-20T16:08:38;24.10;93.20
21883;DHT22;11106;47.864;13.054;2023-07-20T16:13:39;24.10;93.90
21883;DHT22;11106;47.864;13.054;2023-07-20T16:18:39;24.00;94.00
21883;DHT22;11106;47.864;13.054;2023-07-20T16:23:40;24.10;95.20
21883;DHT22;11106;47.864;13.054;2023-07-20T16:28:41;23.90;93.90
21883;DHT22;11106;47.864;13.054;2023-07-20T16:33:43;24.00;94.90
21883;DHT22;11106;47.864;13.054;2023-07-20T16:38:44;23.90;95.10
21883;DHT22;11106;47.864;13.054;2023-07-20T16:43:44;24.00;94.10
21883;DHT22;11106;47.864;13.054;2023-07-20T16:48:45;24.10;95.40
21883;DHT22;11106;47.864;13.054;2023-07-20T16:53:46;24.20;96.10
21883;DHT22;11106;47.864;13.054;2023-07-20T16:58:46;24.30;96.50
21883;DHT22;11106;47.864;13.054;2023-07-20T17:03:47;24.10;96.30
21883;DHT22;11106;47.864;13.054;2023-07-20T17:08:48;24.10;95.80
21883;DHT22;11106;47.864;13.054;2023-07-20T17:13:49;24.00;93.70
21883;DHT22;11106;47.864;13.054;2023-07-20T17:18:50;24.10;94.40
21883;DHT22;11106;47.864;13.054;2023-07-20T17:23:50;24.10;94.30
21883;DHT22;11106;47.864;13.054;2023-07-20T17:28:51;24.20;93.80
21883;DHT22;11106;47.864;13.054;2023-07-20T17:33:52;24.00;94.00
21883;DHT22;11106;47.864;13.054;2023-07-20T17:38:53;24.10;96.00
21883;DHT22;11106;47.864;13.054;2023-07-20T17:43:53;24.10;94.70
21883;DHT22;11106;47.864;13.054;2023-07-20T17:48:54;24.10;97.10
21883;DHT22;11106;47.864;13.054;2023-07-20T17:53:54;24.00;96.70
21883;DHT22;11106;47.864;13.054;2023-07-20T17:58:55;23.80;96.80
21883;DHT22;11106;47.864;13.054;2023-07-20T18:03:55;23.70;97.80
21883;DHT22;11106;47.864;13.054;2023-07-20T18:08:56;23.70;97.10
21883;DHT22;11106;47.864;13.054;2023-07-20T18:13:56;23.70;97.40
21883;DHT22;11106;47.864;13.054;2023-07-20T18:18:57;23.60;99.00
21883;DHT22;11106;47.864;13.054;2023-07-20T18:23:58;23.40;99.50
21883;DHT22;11106;47.864;13.054;2023-07-20T18:28:59;23.40;99.90
21883;DHT22;11106;47.864;13.054;2023-07-20T18:33:59;23.30;99.90
21883;DHT22;11106;47.864;13.054;2023-07-20T18:39:00;23.20;99.90
21883;DHT22;11106;47.864;13.054;2023-07-20T18:44:01;23.00;99.90
21883;DHT22;11106;47.864;13.054;2023-07-20T18:49:01;22.80;99.90
21883;DHT22;11106;47.864;13.054;2023-07-20T18:54:02;22.70;99.90
21883;DHT22;11106;47.864;13.054;2023-07-20T18:59:02;22.60;99.90
21883;DHT22;11106;47.864;13.054;2023-07-20T19:04:03;22.50;99.90
21883;DHT22;11106;47.864;13.054;2023-07-20T19:14:05;22.00;99.90
21883;DHT22;11106;47.864;13.054;2023-07-20T19:19:09;21.90;99.90
21883;DHT22;11106;47.864;13.054;2023-07-20T19:24:10;21.70;99.90
21883;DHT22;11106;47.864;13.054;2023-07-20T19:29:10;21.60;99.90
21883;DHT22;11106;47.864;13.054;2023-07-20T19:34:12;21.40;99.90
21883;DHT22;11106;47.864;13.054;2023-07-20T19:39:12;21.30;99.90
21883;DHT22;11106;47.864;13.054;2023-07-20T19:44:13;20.90;99.90
21883;DHT22;11106;47.864;13.054;2023-07-20T19:49:15;20.80;99.90
21883;DHT22;11106;47.864;13.054;2023-07-20T19:54:16;20.70;99.90
21883;DHT22;11106;47.864;13.054;2023-07-20T19:59:16;20.60;99.90
21883;DHT22;11106;47.864;13.054;2023-07-20T20:04:17;20.50;99.90
21883;DHT22;11106;47.864;13.054;2023-07-20T20:09:20;20.20;99.90
21883;DHT22;11106;47.864;13.054;2023-07-20T20:14:21;19.90;99.90
21883;DHT22;11106;47.864;13.054;2023-07-20T20:19:21;19.90;99.90
21883;DHT22;11106;47.864;13.054;2023-07-20T20:24:22;19.80;99.90
21883;DHT22;11106;47.864;13.054;2023-07-20T20:29:22;19.70;99.90
21883;DHT22;11106;47.864;13.054;2023-07-20T20:34:23;19.50;99.90
21883;DHT22;11106;47.864;13.054;2023-07-20T20:39:24;19.40;99.90
21883;DHT22;11106;47.864;13.054;2023-07-20T20:44:24;19.30;99.90
21883;DHT22;11106;47.864;13.054;2023-07-20T20:49:27;19.10;99.90
21883;DHT22;11106;47.864;13.054;2023-07-20T20:54:28;19.00;99.90
21883;DHT22;11106;47.864;13.054;2023-07-20T20:59:30;19.00;99.90
21883;DHT22;11106;47.864;13.054;2023-07-20T21:04:31;18.90;99.90
21883;DHT22;11106;47.864;13.054;2023-07-20T21:09:32;18.80;99.90
21883;DHT22;11106;47.864;13.054;2023-07-20T21:14:33;18.80;99.90
21883;DHT22;11106;47.864;13.054;2023-07-20T21:19:34;18.70;99.90
21883;DHT22;11106;47.864;13.054;2023-07-20T21:24:35;18.50;99.90
21883;DHT22;11106;47.864;13.054;2023-07-20T21:29:35;18.40;99.90
21883;DHT22;11106;47.864;13.054;2023-07-20T21:34:36;18.40;99.90
21883;DHT22;11106;47.864;13.054;2023-07-20T21:39:36;18.30;99.90
21883;DHT22;11106;47.864;13.054;2023-07-20T21:44:37;18.20;99.90
21883;DHT22;11106;47.864;13.054;2023-07-20T21:49:37;18.20;99.90
21883;DHT22;11106;47.864;13.054;2023-07-20T21:54:38;18.00;99.90
21883;DHT22;11106;47.864;13.054;2023-07-20T21:59:39;17.90;99.90
21883;DHT22;11106;47.864;13.054;2023-07-20T22:04:40;17.90;99.90
21883;DHT22;11106;47.864;13.054;2023-07-20T22:09:41;17.90;99.90
21883;DHT22;11106;47.864;13.054;2023-07-20T22:14:44;17.80;99.90
21883;DHT22;11106;47.864;13.054;2023-07-20T22:19:45;17.70;99.90
21883;DHT22;11106;47.864;13.054;2023-07-20T22:24:47;17.80;99.90
21883;DHT22;11106;47.864;13.054;2023-07-20T22:29:48;17.70;99.90
21883;DHT22;11106;47.864;13.054;2023-07-20T22:34:49;17.60;99.90
21883;DHT22;11106;47.864;13.054;2023-07-20T22:39:49;17.50;99.90
21883;DHT22;11106;47.864;13.054;2023-07-20T22:44:51;17.50;99.90
21883;DHT22;11106;47.864;13.054;2023-07-20T22:49:54;17.40;99.90
21883;DHT22;11106;47.864;13.054;2023-07-20T22:54:54;17.20;99.90
21883;DHT22;11106;47.864;13.054;2023-07-20T22:59:55;17.20;99.90
21883;DHT22;11106;47.864;13.054;2023-07-20T23:04:56;17.10;99.90
21883;DHT22;11106;47.864;13.054;2023-07-20T23:09:56;17.10;99.90
21883;DHT22;11106;47.864;13.054;2023-07-20T23:14:57;17.00;99.90
21883;DHT22;11106;47.864;13.054;2023-07-20T23:19:57;16.90;99.90
21883;DHT22;11106;47.864;13.054;2023-07-20T23:24:58;16.90;99.90
21883;DHT22;11106;47.864;13.054;2023-07-20T23:29:59;16.80;99.90
21883;DHT22;11106;47.864;13.054;2023-07-20T23:35:00;16.80;99.90
21883;DHT22;11106;47.864;13.054;2023-07-20T23:40:01;16.70;99.90
21883;DHT22;11106;47.864;13.054;2023-07-20T23:45:01;16.70;99.90
21883;DHT22;11106;47.864;13.054;2023-07-20T23:50:02;16.70;99.90
21883;DHT22;11106;47.864;13.054;2023-07-20T23:55:04;16.60;99.90
